sensor_id;sensor_type;location;lat;lon;timestamp;temperature;humidity
4054;DHT22;2042;47.956;9.222;2023-06-05T12:48:44;36.20;1.00
4054;DHT22;2042;47.956;9.222;2023-06-05T12:51:10;35.50;1.00
4054;DHT22;2042;47.956;9.222;2023-06-05T12:53:36;34.90;1.00
4054;DHT22;2042;47.956;9.222;2023-06-05T12:56:01;35.30;1.00
4054;DHT22;2042;47.956;9.222;2023-06-05T12:58:27;35.90;1.00
4054;DHT22;2042;47.956;9.222;2023-06-05T13:00:53;36.10;1.00
4054;DHT22;2042;47.956;9.222;2023-06-05T13:03:20;35.10;1.00
4054;DHT22;2042;47.956;9.222;2023-06-05T13:05:48;33.60;1.00
4054;DHT22;2042;47.956;9.222;2023-06-05T13:08:14;32.60;1.00
4054;DHT22;2042;47.956;9.222;2023-06-05T13:10:39;32.90;1.00
4054;DHT22;2042;47.956;9.222;2023-06-05T13:13:05;33.80;1.00
4054;DHT22;2042;47.956;9.222;2023-06-05T13:15:31;34.60;1.00
4054;DHT22;2042;47.956;9.222;2023-06-05T13:17:57;35.30;1.00
4054;DHT22;2042;47.956;9.222;2023-06-05T13:20:22;35.30;1.00
4054;DHT22;2042;47.956;9.222;2023-06-05T13:22:48;35.20;1.00
4054;DHT22;2042;47.956;9.222;2023-06-05T13:25:14;35.10;1.00
4054;DHT22;2042;47.956;9.222;2023-06-05T13:27:39;35.00;1.00
4054;DHT22;2042;47.956;9.222;2023-06-05T13:30:05;34.90;1.00
4054;DHT22;2042;47.956;9.222;2023-06-05T13:32:32;35.30;1.00
4054;DHT22;2042;47.956;9.222;2023-06-05T13:34:59;36.00;1.00
4054;DHT22;2042;47.956;9.222;2023-06-05T13:37:25;36.60;1.00
4054;DHT22;2042;47.956;9.222;2023-06-05T13:39:51;37.00;1.00
4054;DHT22;2042;47.956;9.222;2023-06-05T13:42:16;37.30;1.00
4054;DHT22;2042;47.956;9.222;2023-06-05T13:44:43;37.70;1.00
4054;DHT22;2042;47.956;9.222;2023-06-05T13:47:09;37.50;1.00
4054;DHT22;2042;47.956;9.222;2023-06-05T13:49:35;37.30;1.00
4054;DHT22;2042;47.956;9.222;2023-06-05T13:52:01;37.00;1.00
4054;DHT22;2042;47.956;9.222;2023-06-05T13:54:26;36.50;1.00
4054;DHT22;2042;47.956;9.222;2023-06-05T13:56:52;36.40;1.00
4054;DHT22;2042;47.956;9.222;2023-06-05T13:59:18;36.80;1.00
4054;DHT22;2042;47.956;9.222;2023-06-05T14:01:43;37.60;1.00
4054;DHT22;2042;47.956;9.222;2023-06-05T14:04:10;38.10;1.00
4054;DHT22;2042;47.956;9.222;2023-06-05T14:06:36;38.50;1.00
4054;DHT22;2042;47.956;9.222;2023-06-05T14:09:04;38.70;1.00
4054;DHT22;2042;47.956;9.222;2023-06-05T14:11:30;38.50;1.00
4054;DHT22;2042;47.956;9.222;2023-06-05T14:13:56;38.30;1.00
4054;DHT22;2042;47.956;9.222;2023-06-05T14:16:22;37.70;1.00
4054;DHT22;2042;47.956;9.222;2023-06-05T14:18:48;37.10;1.00
4054;DHT22;2042;47.956;9.222;2023-06-05T14:21:14;36.40;1.00
4054;DHT22;2042;47.956;9.222;2023-06-05T14:23:40;36.00;1.00
4054;DHT22;2042;47.956;9.222;2023-06-05T14:26:06;36.00;1.00
4054;DHT22;2042;47.956;9.222;2023-06-05T14:28:32;36.10;1.00
4054;DHT22;2042;47.956;9.222;2023-06-05T14:30:57;35.80;1.00
4054;DHT22;2042;47.956;9.222;2023-06-05T14:33:23;35.50;1.00
4054;DHT22;2042;47.956;9.222;2023-06-05T14:35:49;35.10;1.00
4054;DHT22;2042;47.956;9.222;2023-06-05T14:38:14;35.00;1.00
4054;DHT22;2042;47.956;9.222;2023-06-05T14:40:40;34.90;1.00
4054;DHT22;2042;47.956;9.222;2023-06-05T14:43:07;34.70;1.00
4054;DHT22;2042;47.956;9.222;2023-06-05T14:45:32;34.60;1.00
4054;DHT22;2042;47.956;9.222;2023-06-05T14:47:58;34.60;1.00
4054;DHT22;2042;47.956;9.222;2023-06-05T14:50:24;35.00;1.00
4054;DHT22;2042;47.956;9.222;2023-06-05T14:52:50;35.40;1.00
4054;DHT22;2042;47.956;9.222;2023-06-05T14:55:16;35.70;1.00
4054;DHT22;2042;47.956;9.222;2023-06-05T14:57:42;35.40;1.00
4054;DHT22;2042;47.956;9.222;2023-06-05T15:00:08;34.90;1.00
4054;DHT22;2042;47.956;9.222;2023-06-05T15:02:34;34.50;1.00
4054;DHT22;2042;47.956;9.222;2023-06-05T15:05:00;34.50;1.00
4054;DHT22;2042;47.956;9.222;2023-06-05T15:07:35;34.60;1.00
4054;DHT22;2042;47.956;9.222;2023-06-05T15:10:02;34.70;1.00
4054;DHT22;2042;47.956;9.222;2023-06-05T15:12:28;34.60;1.00
4054;DHT22;2042;47.956;9.222;2023-06-05T15:14:53;34.30;1.00
4054;DHT22;2042;47.956;9.222;2023-06-05T15:17:19;34.20;1.00
4054;DHT22;2042;47.956;9.222;2023-06-05T15:19:45;34.40;1.00
4054;DHT22;2042;47.956;9.222;2023-06-05T15:22:10;34.50;1.00
4054;DHT22;2042;47.956;9.222;2023-06-05T15:24:36;34.60;1.00
4054;DHT22;2042;47.956;9.222;2023-06-05T15:27:02;34.40;1.00
4054;DHT22;2042;47.956;9.222;2023-06-05T15:29:28;34.00;1.00
4054;DHT22;2042;47.956;9.222;2023-06-05T15:31:54;33.80;1.00
4054;DHT22;2042;47.956;9.222;2023-06-05T15:34:19;33.90;1.00
4054;DHT22;2042;47.956;9.222;2023-06-05T15:36:45;33.90;1.00
4054;DHT22;2042;47.956;9.222;2023-06-05T15:39:11;33.80;1.00
4054;DHT22;2042;47.956;9.222;2023-06-05T15:41:38;33.80;1.00
4054;DHT22;2042;47.956;9.222;2023-06-05T15:44:04;33.50;1.00
4054;DHT22;2042;47.956;9.222;2023-06-05T15:46:30;33.00;1.00
4054;DHT22;2042;47.956;9.222;2023-06-05T15:48:55;32.70;1.00
4054;DHT22;2042;47.956;9.222;2023-06-05T15:51:21;32.80;1.00
4054;DHT22;2042;47.956;9.222;2023-06-05T15:53:47;32.80;1.00
4054;DHT22;2042;47.956;9.222;2023-06-05T15:56:12;32.10;1.00
4054;DHT22;2042;47.956;9.222;2023-06-05T15:58:38;31.20;1.00
4054;DHT22;2042;47.956;9.222;2023-06-05T16:01:04;30.90;1.00
4054;DHT22;2042;47.956;9.222;2023-06-05T16:03:30;30.90;1.00
4054;DHT22;2042;47.956;9.222;2023-06-05T16:05:56;30.90;1.00
4054;DHT22;2042;47.956;9.222;2023-06-05T16:08:21;30.70;1.00
4054;DHT22;2042;47.956;9.222;2023-06-05T16:10:47;30.80;1.00
4054;DHT22;2042;47.956;9.222;2023-06-05T16:13:13;30.90;1.00
4054;DHT22;2042;47.956;9.222;2023-06-05T16:15:41;31.00;1.00
4054;DHT22;2042;47.956;9.222;2023-06-05T16:18:07;31.10;1.00
4054;DHT22;2042;47.956;9.222;2023-06-05T16:20:32;31.20;1.00
4054;DHT22;2042;47.956;9.222;2023-06-05T16:22:58;30.80;1.00
4054;DHT22;2042;47.956;9.222;2023-06-05T16:25:24;30.60;1.00
4054;DHT22;2042;47.956;9.222;2023-06-05T16:27:50;30.80;1.00
4054;DHT22;2042;47.956;9.222;2023-06-05T16:30:16;30.80;1.00
4054;DHT22;2042;47.956;9.222;2023-06-05T16:32:41;30.40;1.00
4054;DHT22;2042;47.956;9.222;2023-06-05T16:35:07;29.90;1.00
4054;DHT22;2042;47.956;9.222;2023-06-05T16:37:33;29.30;1.00
4054;DHT22;2042;47.956;9.222;2023-06-05T16:39:59;28.70;1.00
4054;DHT22;2042;47.956;9.222;2023-06-05T16:42:25;28.10;1.00
4054;DHT22;2042;47.956;9.222;2023-06-05T16:44:52;27.50;1.00
4054;DHT22;2042;47.956;9.222;2023-06-05T16:47:17;27.00;1.00
4054;DHT22;2042;47.956;9.222;2023-06-05T16:49:43;26.60;1.00
4054;DHT22;2042;47.956;9.222;2023-06-05T16:52:09;26.30;1.00
4054;DHT22;2042;47.956;9.222;2023-06-05T16:54:35;26.30;1.00
4054;DHT22;2042;47.956;9.222;2023-06-05T16:57:01;26.60;1.00
4054;DHT22;2042;47.956;9.222;2023-06-05T16:59:28;27.20;1.00
4054;DHT22;2042;47.956;9.222;2023-06-05T17:01:53;27.60;1.00
4054;DHT22;2042;47.956;9.222;2023-06-05T17:04:19;27.60;1.00
4054;DHT22;2042;47.956;9.222;2023-06-05T17:06:45;27.70;1.00
4054;DHT22;2042;47.956;9.222;2023-06-05T17:09:15;27.90;1.00
4054;DHT22;2042;47.956;9.222;2023-06-05T17:11:41;28.20;1.00
4054;DHT22;2042;47.956;9.222;2023-06-05T17:14:07;27.80;1.00
4054;DHT22;2042;47.956;9.222;2023-06-05T17:16:34;27.60;1.00
4054;DHT22;2042;47.956;9.222;2023-06-05T17:19:02;27.50;1.00
4054;DHT22;2042;47.956;9.222;2023-06-05T17:21:28;27.40;1.00
4054;DHT22;2042;47.956;9.222;2023-06-05T17:23:53;27.40;1.00
4054;DHT22;2042;47.956;9.222;2023-06-05T17:26:19;27.50;1.00
4054;DHT22;2042;47.956;9.222;2023-06-05T17:28:46;27.50;1.00
4054;DHT22;2042;47.956;9.222;2023-06-05T17:31:11;27.50;1.00
4054;DHT22;2042;47.956;9.222;2023-06-05T17:33:37;27.50;1.00
4054;DHT22;2042;47.956;9.222;2023-06-05T17:36:04;27.30;1.00
4054;DHT22;2042;47.956;9.222;2023-06-05T17:38:30;27.20;1.00
4054;DHT22;2042;47.956;9.222;2023-06-05T17:40:56;27.00;1.00
4054;DHT22;2042;47.956;9.222;2023-06-05T17:43:21;26.90;1.00
4054;DHT22;2042;47.956;9.222;2023-06-05T17:45:47;26.60;1.00
4054;DHT22;2042;47.956;9.222;2023-06-05T17:48:13;26.30;1.00
4054;DHT22;2042;47.956;9.222;2023-06-05T17:50:38;25.90;1.00
4054;DHT22;2042;47.956;9.222;2023-06-05T17:53:04;25.50;1.00
4054;DHT22;2042;47.956;9.222;2023-06-05T17:55:30;24.90;1.00
4054;DHT22;2042;47.956;9.222;2023-06-05T17:57:56;24.30;1.00
4054;DHT22;2042;47.956;9.222;2023-06-05T18:00:23;23.60;1.00
4054;DHT22;2042;47.956;9.222;2023-06-05T18:02:49;23.10;1.00
4054;DHT22;2042;47.956;9.222;2023-06-05T18:05:15;22.60;1.00
4054;DHT22;2042;47.956;9.222;2023-06-05T18:07:41;22.30;1.00
4054;DHT22;2042;47.956;9.222;2023-06-05T18:10:07;22.00;1.00
4054;DHT22;2042;47.956;9.222;2023-06-05T18:12:33;21.70;1.00
4054;DHT22;2042;47.956;9.222;2023-06-05T18:14:59;21.40;1.00
4054;DHT22;2042;47.956;9.222;2023-06-05T18:17:27;21.30;1.00
4054;DHT22;2042;47.956;9.222;2023-06-05T18:19:57;21.00;1.00
4054;DHT22;2042;47.956;9.222;2023-06-05T18:22:23;20.80;1.00
4054;DHT22;2042;47.956;9.222;2023-06-05T18:24:50;20.60;1.00
4054;DHT22;2042;47.956;9.222;2023-06-05T18:27:16;20.40;1.00
4054;DHT22;2042;47.956;9.222;2023-06-05T18:29:41;20.40;1.00
4054;DHT22;2042;47.956;9.222;2023-06-05T18:32:07;20.30;1.00
4054;DHT22;2042;47.956;9.222;2023-06-05T18:34:35;20.20;1.00
4054;DHT22;2042;47.956;9.222;2023-06-05T18:37:01;20.00;1.00
4054;DHT22;2042;47.956;9.222;2023-06-05T18:39:27;19.70;1.00
4054;DHT22;2042;47.956;9.222;2023-06-05T18:41:53;19.50;1.00
4054;DHT22;2042;47.956;9.222;2023-06-05T18:44:19;19.20;1.00
4054;DHT22;2042;47.956;9.222;2023-06-05T18:46:44;18.90;1.00
4054;DHT22;2042;47.956;9.222;2023-06-05T18:49:10;18.70;1.00
4054;DHT22;2042;47.956;9.222;2023-06-05T18:51:37;18.50;1.00
4054;DHT22;2042;47.956;9.222;2023-06-05T18:54:04;18.30;1.00
4054;DHT22;2042;47.956;9.222;2023-06-05T18:56:30;18.00;1.00
4054;DHT22;2042;47.956;9.222;2023-06-05T18:58:56;17.80;1.00
4054;DHT22;2042;47.956;9.222;2023-06-05T19:01:21;17.70;1.00
4054;DHT22;2042;47.956;9.222;2023-06-05T19:03:47;17.50;1.00
4054;DHT22;2042;47.956;9.222;2023-06-05T19:06:13;17.30;1.00
4054;DHT22;2042;47.956;9.222;2023-06-05T19:08:38;17.20;1.00
4054;DHT22;2042;47.956;9.222;2023-06-05T19:11:04;17.00;1.00
4054;DHT22;2042;47.956;9.222;2023-06-05T19:13:30;16.90;1.00
4054;DHT22;2042;47.956;9.222;2023-06-05T19:15:56;16.70;1.00
4054;DHT22;2042;47.956;9.222;2023-06-05T19:18:21;16.60;1.00
4054;DHT22;2042;47.956;9.222;2023-06-05T19:20:47;16.40;1.00
4054;DHT22;2042;47.956;9.222;2023-06-05T19:23:13;16.20;1.00
4054;DHT22;2042;47.956;9.222;2023-06-05T19:25:38;16.00;1.00
4054;DHT22;2042;47.956;9.222;2023-06-05T19:28:04;15.80;1.00
4054;DHT22;2042;47.956;9.222;2023-06-05T19:30:30;15.60;1.00
4054;DHT22;2042;47.956;9.222;2023-06-05T19:32:56;15.50;1.00
4054;DHT22;2042;47.956;9.222;2023-06-05T19:35:21;15.30;1.00
4054;DHT22;2042;47.956;9.222;2023-06-05T19:37:48;15.30;1.00
4054;DHT22;2042;47.956;9.222;2023-06-05T19:40:14;15.10;1.00
4054;DHT22;2042;47.956;9.222;2023-06-05T19:42:40;15.00;1.00
4054;DHT22;2042;47.956;9.222;2023-06-05T19:45:07;14.80;1.00
4054;DHT22;2042;47.956;9.222;2023-06-05T19:47:33;14.60;1.00
4054;DHT22;2042;47.956;9.222;2023-06-05T19:49:59;14.40;1.00
4054;DHT22;2042;47.956;9.222;2023-06-05T19:52:25;14.20;1.00
4054;DHT22;2042;47.956;9.222;2023-06-05T19:54:52;14.10;1.00
4054;DHT22;2042;47.956;9.222;2023-06-05T19:57:17;13.90;1.00
4054;DHT22;2042;47.956;9.222;2023-06-05T19:59:43;13.70;1.00
4054;DHT22;2042;47.956;9.222;2023-06-05T20:02:09;13.60;1.00
4054;DHT22;2042;47.956;9.222;2023-06-05T20:04:35;13.50;1.00
4054;DHT22;2042;47.956;9.222;2023-06-05T20:07:01;13.50;1.00
4054;DHT22;2042;47.956;9.222;2023-06-05T20:09:27;13.40;1.00
4054;DHT22;2042;47.956;9.222;2023-06-05T20:11:52;13.40;1.00
4054;DHT22;2042;47.956;9.222;2023-06-05T20:14:18;13.30;1.00
4054;DHT22;2042;47.956;9.222;2023-06-05T20:16:44;13.20;1.00
4054;DHT22;2042;47.956;9.222;2023-06-05T20:19:09;13.20;1.00
4054;DHT22;2042;47.956;9.222;2023-06-05T20:21:35;13.10;1.00
4054;DHT22;2042;47.956;9.222;2023-06-05T20:24:01;13.00;1.00
4054;DHT22;2042;47.956;9.222;2023-06-05T20:26:26;13.00;1.00
4054;DHT22;2042;47.956;9.222;2023-06-05T20:28:52;13.00;1.00
4054;DHT22;2042;47.956;9.222;2023-06-05T20:31:18;13.10;1.00
4054;DHT22;2042;47.956;9.222;2023-06-05T20:33:44;13.10;1.00
4054;DHT22;2042;47.956;9.222;2023-06-05T20:36:10;13.20;1.00
4054;DHT22;2042;47.956;9.222;2023-06-05T20:38:36;13.20;1.00
4054;DHT22;2042;47.956;9.222;2023-06-05T20:41:07;13.20;1.00
4054;DHT22;2042;47.956;9.222;2023-06-05T20:43:33;13.20;1.00
4054;DHT22;2042;47.956;9.222;2023-06-05T20:46:00;13.30;1.00
4054;DHT22;2042;47.956;9.222;2023-06-05T20:48:27;13.20;1.00
4054;DHT22;2042;47.956;9.222;2023-06-05T20:50:53;13.20;1.00
4054;DHT22;2042;47.956;9.222;2023-06-05T20:53:18;13.20;1.00
4054;DHT22;2042;47.956;9.222;2023-06-05T20:55:44;13.20;1.00
4054;DHT22;2042;47.956;9.222;2023-06-05T20:58:10;13.30;1.00
4054;DHT22;2042;47.956;9.222;2023-06-05T21:00:36;13.30;1.00
4054;DHT22;2042;47.956;9.222;2023-06-05T21:03:02;13.30;1.00
4054;DHT22;2042;47.956;9.222;2023-06-05T21:05:29;13.30;1.00
4054;DHT22;2042;47.956;9.222;2023-06-05T21:07:55;13.30;1.00
4054;DHT22;2042;47.956;9.222;2023-06-05T21:10:21;13.30;1.00
4054;DHT22;2042;47.956;9.222;2023-06-05T21:12:47;13.40;1.00
4054;DHT22;2042;47.956;9.222;2023-06-05T21:15:13;13.30;1.00
4054;DHT22;2042;47.956;9.222;2023-06-05T21:17:39;13.30;1.00
4054;DHT22;2042;47.956;9.222;2023-06-05T21:20:07;13.20;1.00
4054;DHT22;2042;47.956;9.222;2023-06-05T21:22:36;13.20;1.00
4054;DHT22;2042;47.956;9.222;2023-06-05T21:25:02;13.10;1.00
4054;DHT22;2042;47.956;9.222;2023-06-05T21:27:28;13.10;1.00
4054;DHT22;2042;47.956;9.222;2023-06-05T21:29:54;13.10;1.00
4054;DHT22;2042;47.956;9.222;2023-06-05T21:32:20;13.00;1.00
4054;DHT22;2042;47.956;9.222;2023-06-05T21:34:46;12.80;1.00
4054;DHT22;2042;47.956;9.222;2023-06-05T21:37:13;12.80;1.00
4054;DHT22;2042;47.956;9.222;2023-06-05T21:39:42;12.70;1.00
4054;DHT22;2042;47.956;9.222;2023-06-05T21:42:08;12.60;1.00
4054;DHT22;2042;47.956;9.222;2023-06-05T21:44:40;12.50;1.00
4054;DHT22;2042;47.956;9.222;2023-06-05T21:47:10;12.50;1.00
4054;DHT22;2042;47.956;9.222;2023-06-05T21:49:36;12.60;1.00
4054;DHT22;2042;47.956;9.222;2023-06-05T21:52:03;12.70;1.00
4054;DHT22;2042;47.956;9.222;2023-06-05T21:54:28;12.80;1.00
4054;DHT22;2042;47.956;9.222;2023-06-05T21:56:54;12.90;1.00
4054;DHT22;2042;47.956;9.222;2023-06-05T21:59:20;12.90;1.00
4054;DHT22;2042;47.956;9.222;2023-06-05T22:01:45;12.90;1.00
4054;DHT22;2042;47.956;9.222;2023-06-05T22:04:11;13.00;1.00
4054;DHT22;2042;47.956;9.222;2023-06-05T22:06:36;13.00;1.00
4054;DHT22;2042;47.956;9.222;2023-06-05T22:09:02;13.00;1.00
4054;DHT22;2042;47.956;9.222;2023-06-05T22:11:31;13.10;1.00
4054;DHT22;2042;47.956;9.222;2023-06-05T22:14:01;13.00;1.00
4054;DHT22;2042;47.956;9.222;2023-06-05T22:16:27;13.00;1.00
4054;DHT22;2042;47.956;9.222;2023-06-05T22:18:56;13.10;1.00
4054;DHT22;2042;47.956;9.222;2023-06-05T22:21:24;13.10;1.00
4054;DHT22;2042;47.956;9.222;2023-06-05T22:23:50;13.00;1.00
4054;DHT22;2042;47.956;9.222;2023-06-05T22:26:16;13.00;1.00
4054;DHT22;2042;47.956;9.222;2023-06-05T22:28:43;13.00;1.00
4054;DHT22;2042;47.956;9.222;2023-06-05T22:31:09;13.00;1.00
4054;DHT22;2042;47.956;9.222;2023-06-05T22:33:35;13.00;1.00
4054;DHT22;2042;47.956;9.222;2023-06-05T22:36:01;12.90;1.00
4054;DHT22;2042;47.956;9.222;2023-06-05T22:38:28;12.90;1.00
4054;DHT22;2042;47.956;9.222;2023-06-05T22:40:56;12.90;1.00
4054;DHT22;2042;47.956;9.222;2023-06-05T22:43:22;12.80;1.00
4054;DHT22;2042;47.956;9.222;2023-06-05T22:45:48;12.70;1.00
4054;DHT22;2042;47.956;9.222;2023-06-05T22:48:14;12.70;1.00
4054;DHT22;2042;47.956;9.222;2023-06-05T22:50:43;12.70;1.00
4054;DHT22;2042;47.956;9.222;2023-06-05T22:53:10;12.60;1.00
4054;DHT22;2042;47.956;9.222;2023-06-05T22:55:35;12.60;1.00
4054;DHT22;2042;47.956;9.222;2023-06-05T22:58:03;12.60;1.00
4054;DHT22;2042;47.956;9.222;2023-06-05T23:00:29;12.50;1.00
4054;DHT22;2042;47.956;9.222;2023-06-05T23:02:55;12.50;1.00
4054;DHT22;2042;47.956;9.222;2023-06-05T23:05:22;12.40;1.00
4054;DHT22;2042;47.956;9.222;2023-06-05T23:07:47;12.40;1.00
4054;DHT22;2042;47.956;9.222;2023-06-05T23:10:14;12.30;1.00
4054;DHT22;2042;47.956;9.222;2023-06-05T23:12:40;12.20;1.00
4054;DHT22;2042;47.956;9.222;2023-06-05T23:15:06;12.10;1.00
4054;DHT22;2042;47.956;9.222;2023-06-05T23:17:32;12.10;1.00
4054;DHT22;2042;47.956;9.222;2023-06-05T23:19:58;12.00;1.00
4054;DHT22;2042;47.956;9.222;2023-06-05T23:22:23;12.00;1.00
4054;DHT22;2042;47.956;9.222;2023-06-05T23:24:49;11.90;1.00
4054;DHT22;2042;47.956;9.222;2023-06-05T23:27:14;11.90;1.00
4054;DHT22;2042;47.956;9.222;2023-06-05T23:29:40;11.80;1.00
4054;DHT22;2042;47.956;9.222;2023-06-05T23:32:06;11.70;1.00
4054;DHT22;2042;47.956;9.222;2023-06-05T23:34:32;11.70;1.00
4054;DHT22;2042;47.956;9.222;2023-06-05T23:36:58;11.60;1.00
4054;DHT22;2042;47.956;9.222;2023-06-05T23:39:25;11.60;1.00
4054;DHT22;2042;47.956;9.222;2023-06-05T23:41:51;11.60;1.00
4054;DHT22;2042;47.956;9.222;2023-06-05T23:44:19;11.50;1.00
4054;DHT22;2042;47.956;9.222;2023-06-05T23:46:45;11.50;1.00
4054;DHT22;2042;47.956;9.222;2023-06-05T23:49:11;11.40;1.00
4054;DHT22;2042;47.956;9.222;2023-06-05T23:51:37;11.40;1.00
4054;DHT22;2042;47.956;9.222;2023-06-05T23:54:03;11.30;1.00
4054;DHT22;2042;47.956;9.222;2023-06-05T23:56:29;11.40;1.00
4054;DHT22;2042;47.956;9.222;2023-06-05T23:58:55;11.40;1.00
